createdAt,value
2019-04-29T00:01:25.055Z,100007.00
2019-04-29T00:03:55.781Z,100002.00
2019-04-29T00:06:26.445Z,99997.00
2019-04-29T00:08:57.201Z,99997.00
2019-04-29T00:11:28.057Z,100005.00
2019-04-29T00:13:59.886Z,99997.00
2019-04-29T00:16:43.467Z,100002.00
2019-04-29T00:19:38.714Z,99994.00
2019-04-29T00:22:09.640Z,99989.00
2019-04-29T00:24:40.223Z,99982.00
2019-04-29T00:27:11.182Z,99981.00
2019-04-29T00:29:41.883Z,99986.00
2019-04-29T00:32:13.055Z,99988.00
2019-04-29T00:34:43.852Z,99984.00
2019-04-29T00:37:45.550Z,99986.00
2019-04-29T00:40:35.025Z,99987.00
2019-04-29T00:43:33.694Z,99995.00
2019-04-29T00:46:04.916Z,99995.00
2019-04-29T00:48:35.488Z,99988.00
2019-04-29T00:51:06.225Z,99987.00
2019-04-29T00:53:37.353Z,99981.00
2019-04-29T00:56:08.014Z,99990.00
2019-04-29T00:58:38.605Z,99984.00
2019-04-29T01:01:14.395Z,99985.00
2019-04-29T01:03:45.057Z,99987.00
2019-04-29T01:06:15.630Z,99978.00
2019-04-29T01:08:46.219Z,99988.00
2019-04-29T01:11:16.927Z,99991.00
2019-04-29T01:13:47.481Z,99989.00
2019-04-29T01:16:18.068Z,99994.00
2019-04-29T01:18:48.939Z,99988.00
2019-04-29T01:21:19.599Z,100001.00
2019-04-29T01:23:50.141Z,99986.00
2019-04-29T01:26:40.592Z,99996.00
2019-04-29T01:29:12.859Z,99990.00
2019-04-29T01:31:43.425Z,99994.00
2019-04-29T01:34:24.439Z,99990.00
2019-04-29T01:36:55.132Z,99984.00
2019-04-29T01:39:33.930Z,99983.00
2019-04-29T01:42:16.269Z,99983.00
2019-04-29T01:44:46.915Z,99975.00
2019-04-29T01:47:17.451Z,99970.00
2019-04-29T01:49:48.071Z,99971.00
2019-04-29T01:52:18.653Z,99977.00
2019-04-29T01:54:49.251Z,99972.00
2019-04-29T01:57:19.841Z,99972.00
2019-04-29T01:59:50.402Z,99967.00
2019-04-29T02:02:20.990Z,99968.00
2019-04-29T02:04:51.549Z,99965.00
2019-04-29T02:07:22.134Z,99965.00
2019-04-29T02:10:01.687Z,99969.00
2019-04-29T02:12:32.306Z,99972.00
2019-04-29T02:15:03.011Z,99968.00
2019-04-29T02:17:33.571Z,99962.00
2019-04-29T02:20:05.702Z,99954.00
2019-04-29T02:22:41.781Z,99960.00
2019-04-29T02:25:20.285Z,99956.00
2019-04-29T02:27:50.855Z,99958.00
2019-04-29T02:30:41.811Z,99952.00
2019-04-29T02:33:12.401Z,99952.00
2019-04-29T02:35:44.450Z,99950.00
2019-04-29T02:38:30.476Z,99954.00
2019-04-29T02:41:17.631Z,99956.00
2019-04-29T02:43:49.972Z,99953.00
2019-04-29T02:46:20.552Z,99949.00
2019-04-29T02:48:51.140Z,99942.00
2019-04-29T02:51:41.162Z,99936.00
2019-04-29T02:54:13.606Z,99929.00
2019-04-29T02:56:47.038Z,99930.00
2019-04-29T02:59:22.032Z,99933.00
2019-04-29T03:02:00.623Z,99931.00
2019-04-29T03:04:34.830Z,99921.00
2019-04-29T03:07:05.725Z,99924.00
2019-04-29T03:09:45.457Z,99919.00
2019-04-29T03:12:16.506Z,99924.00
2019-04-29T03:14:47.152Z,99929.00
2019-04-29T03:17:19.386Z,99918.00
2019-04-29T03:20:08.081Z,99920.00
2019-04-29T03:22:39.623Z,99917.00
2019-04-29T03:25:11.449Z,99916.00
2019-04-29T03:27:42.073Z,99916.00
2019-04-29T03:30:13.042Z,99924.00
2019-04-29T03:32:43.617Z,99923.00
2019-04-29T03:35:14.696Z,99924.00
2019-04-29T03:37:45.368Z,99922.00
2019-04-29T03:40:17.308Z,99919.00
2019-04-29T03:42:48.068Z,99919.00
2019-04-29T03:45:18.640Z,99916.00
2019-04-29T03:47:52.353Z,99910.00
2019-04-29T03:50:23.051Z,99906.00
2019-04-29T03:52:53.722Z,99904.00
2019-04-29T03:55:38.941Z,99908.00
2019-04-29T03:57:58.544Z,99905.00
2019-04-29T04:00:30.699Z,99897.00
2019-04-29T04:03:18.161Z,99902.00
2019-04-29T04:05:55.810Z,99900.00
2019-04-29T04:08:32.943Z,99909.00
2019-04-29T04:11:03.646Z,99903.00
2019-04-29T04:13:34.274Z,99912.00
2019-04-29T04:16:06.579Z,99922.00
2019-04-29T04:18:37.115Z,99923.00
2019-04-29T04:21:07.735Z,99918.00
2019-04-29T04:23:39.815Z,99917.00
2019-04-29T04:26:10.565Z,99904.00
2019-04-29T04:28:41.298Z,99905.00
2019-04-29T04:31:12.005Z,99906.00
2019-04-29T04:33:42.723Z,99900.00
2019-04-29T04:36:13.431Z,99904.00
2019-04-29T04:38:44.420Z,99908.00
2019-04-29T04:41:15.041Z,99898.00
2019-04-29T04:43:45.764Z,99897.00
2019-04-29T04:46:16.392Z,99899.00
2019-04-29T04:48:46.995Z,99895.00
2019-04-29T04:51:17.640Z,99892.00
2019-04-29T04:53:48.746Z,99895.00
2019-04-29T04:56:19.450Z,99889.00
2019-04-29T04:58:50.130Z,99885.00
2019-04-29T05:01:20.722Z,99879.00
2019-04-29T05:03:51.465Z,99883.00
2019-04-29T05:06:22.040Z,99884.00
2019-04-29T05:08:53.798Z,99888.00
2019-04-29T05:11:24.411Z,99889.00
2019-04-29T05:13:54.931Z,99887.00
2019-04-29T05:16:25.588Z,99886.00
2019-04-29T05:18:56.127Z,99891.00
2019-04-29T05:21:28.001Z,99880.00
2019-04-29T05:23:58.561Z,99881.00
2019-04-29T05:26:30.990Z,99873.00
2019-04-29T05:29:01.627Z,99881.00
2019-04-29T05:31:32.337Z,99883.00
2019-04-29T05:34:02.898Z,99880.00
2019-04-29T05:36:45.733Z,99877.00
2019-04-29T05:39:28.620Z,99873.00
2019-04-29T05:41:59.335Z,99862.00
2019-04-29T05:44:35.742Z,99867.00
2019-04-29T05:47:19.491Z,99855.00
2019-04-29T05:50:12.116Z,99850.00
2019-04-29T05:53:02.675Z,99852.00
2019-04-29T05:55:33.318Z,99850.00
2019-04-29T05:58:13.223Z,99840.00
2019-04-29T06:00:50.894Z,99843.00
2019-04-29T06:03:22.514Z,99840.00
2019-04-29T06:05:53.152Z,99846.00
2019-04-29T06:08:23.715Z,99848.00
2019-04-29T06:10:54.410Z,99846.00
2019-04-29T06:13:25.181Z,99836.00
2019-04-29T06:15:57.556Z,99840.00
2019-04-29T06:18:29.817Z,99845.00
2019-04-29T06:21:08.804Z,99838.00
2019-04-29T06:23:32.758Z,99849.00
2019-04-29T06:26:06.536Z,99840.00
2019-04-29T06:28:37.092Z,99845.00
2019-04-29T06:31:07.629Z,99838.00
2019-04-29T06:33:38.347Z,99833.00
2019-04-29T06:36:09.272Z,99837.00
2019-04-29T06:38:39.864Z,99833.00
2019-04-29T06:41:10.960Z,99832.00
2019-04-29T06:43:41.657Z,99829.00
2019-04-29T06:46:12.305Z,99827.00
2019-04-29T06:48:44.382Z,99825.00
2019-04-29T06:51:14.953Z,99832.00
2019-04-29T06:53:47.771Z,99831.00
2019-04-29T06:56:17.824Z,99829.00
2019-04-29T06:58:49.124Z,99837.00
2019-04-29T07:01:19.918Z,99826.00
2019-04-29T07:03:50.661Z,99831.00
2019-04-29T07:06:22.510Z,99838.00
2019-04-29T07:08:53.080Z,99842.00
2019-04-29T07:11:23.723Z,99850.00
2019-04-29T07:13:57.635Z,99846.00
2019-04-29T07:16:29.855Z,99835.00
2019-04-29T07:18:59.138Z,99840.00
2019-04-29T07:21:29.777Z,99832.00
2019-04-29T07:24:02.180Z,99829.00
2019-04-29T07:26:33.926Z,99819.00
2019-04-29T07:29:04.581Z,99829.00
2019-04-29T07:31:35.292Z,99826.00
2019-04-29T07:34:08.380Z,99824.00
2019-04-29T07:36:38.387Z,99810.00
2019-04-29T07:39:09.230Z,99809.00
2019-04-29T07:41:40.959Z,99798.00
2019-04-29T07:44:43.434Z,99805.00
2019-04-29T07:47:02.641Z,99809.00
2019-04-29T07:49:33.203Z,99809.00
2019-04-29T07:52:05.103Z,99809.00
2019-04-29T07:54:35.678Z,99804.00
2019-04-29T07:57:08.095Z,99806.00
2019-04-29T07:59:39.698Z,99793.00
2019-04-29T08:02:10.429Z,99796.00
2019-04-29T08:04:41.021Z,99801.00
2019-04-29T08:07:11.729Z,99801.00
2019-04-29T08:09:44.379Z,99796.00
2019-04-29T08:12:16.911Z,99795.00
2019-04-29T08:14:53.481Z,99789.00
2019-04-29T08:17:21.908Z,99788.00
2019-04-29T08:19:52.562Z,99782.00
2019-04-29T08:22:27.645Z,99768.00
2019-04-29T08:24:56.721Z,99756.00
2019-04-29T08:27:39.261Z,99766.00
2019-04-29T08:29:59.619Z,99767.00
2019-04-29T08:32:31.578Z,99767.00
2019-04-29T08:35:03.380Z,99771.00
2019-04-29T08:37:34.034Z,99774.00
2019-04-29T08:40:15.853Z,99781.00
2019-04-29T08:42:41.802Z,99799.00
2019-04-29T08:45:39.213Z,99822.00
2019-04-29T08:48:09.231Z,99854.00
2019-04-29T08:50:39.908Z,99869.00
2019-04-29T08:53:11.669Z,99871.00
2019-04-29T08:55:42.249Z,99851.00
2019-04-29T08:58:13.013Z,99838.00
2019-04-29T09:00:43.770Z,99822.00
2019-04-29T09:03:14.430Z,99800.00
2019-04-29T09:05:46.043Z,99792.00
2019-04-29T09:08:17.352Z,99779.00
2019-04-29T09:10:49.627Z,99760.00
2019-04-29T09:13:20.451Z,99764.00
2019-04-29T09:15:52.873Z,99757.00
2019-04-29T09:18:23.518Z,99771.00
2019-04-29T09:20:56.581Z,99771.00
2019-04-29T09:23:30.715Z,99776.00
2019-04-29T09:26:38.665Z,99768.00
2019-04-29T09:29:27.803Z,99761.00
2019-04-29T09:31:58.468Z,99750.00
2019-04-29T09:34:29.214Z,99743.00
2019-04-29T09:36:59.993Z,99740.00
2019-04-29T09:39:42.475Z,99724.00
2019-04-29T09:42:20.931Z,99715.00
2019-04-29T09:45:09.962Z,99713.00
2019-04-29T09:47:40.585Z,99705.00
2019-04-29T09:50:11.666Z,99702.00
2019-04-29T09:52:42.296Z,99692.00
2019-04-29T09:55:13.083Z,99687.00
2019-04-29T09:57:43.645Z,99678.00
2019-04-29T10:00:25.989Z,99681.00
2019-04-29T10:03:05.207Z,99688.00
2019-04-29T10:05:42.164Z,99680.00
2019-04-29T10:08:12.830Z,99670.00
2019-04-29T10:10:43.605Z,99670.00
2019-04-29T10:13:14.300Z,99654.00
2019-04-29T10:16:06.902Z,99670.00
2019-04-29T10:18:42.603Z,99666.00
2019-04-29T10:21:16.425Z,99671.00
2019-04-29T10:23:47.142Z,99681.00
2019-04-29T10:26:17.906Z,99687.00
2019-04-29T10:28:56.230Z,99684.00
2019-04-29T10:31:26.909Z,99687.00
2019-04-29T10:33:57.509Z,99689.00
2019-04-29T10:36:28.409Z,99706.00
2019-04-29T10:39:03.706Z,99711.00
2019-04-29T10:41:40.380Z,99739.00
2019-04-29T10:44:37.395Z,99771.00
2019-04-29T10:47:30.805Z,99772.00
2019-04-29T10:50:05.958Z,99775.00
2019-04-29T10:52:38.658Z,99768.00
2019-04-29T10:55:11.337Z,99773.00
2019-04-29T10:57:44.820Z,99781.00
2019-04-29T11:00:37.803Z,99788.00
2019-04-29T11:03:08.402Z,99786.00
2019-04-29T11:06:00.530Z,99746.00
2019-04-29T11:08:54.184Z,99717.00
2019-04-29T11:11:27.355Z,99677.00
2019-04-29T11:14:01.422Z,99663.00
2019-04-29T11:16:46.178Z,99663.00
2019-04-29T11:19:05.339Z,99664.00
2019-04-29T11:21:38.878Z,99652.00
2019-04-29T11:24:27.808Z,99652.00
2019-04-29T11:27:12.341Z,99649.00
2019-04-29T11:29:43.126Z,99652.00
2019-04-29T11:32:20.619Z,99656.00
2019-04-29T11:35:13.245Z,99662.00
2019-04-29T11:37:43.887Z,99673.00
2019-04-29T11:40:15.118Z,99676.00
2019-04-29T11:42:47.477Z,99662.00
2019-04-29T11:45:18.286Z,99660.00
2019-04-29T11:47:50.349Z,99664.00
2019-04-29T11:50:27.156Z,99658.00
2019-04-29T11:52:57.936Z,99662.00
2019-04-29T11:55:28.531Z,99653.00
2019-04-29T11:58:04.122Z,99658.00
2019-04-29T12:01:11.804Z,99650.00
2019-04-29T12:03:43.528Z,99653.00
2019-04-29T12:06:16.315Z,99657.00
2019-04-29T12:08:48.351Z,99650.00
2019-04-29T12:11:20.131Z,99648.00
2019-04-29T12:14:05.054Z,99648.00
2019-04-29T12:16:48.837Z,99657.00
2019-04-29T12:19:28.788Z,99647.00
2019-04-29T12:21:59.483Z,99640.00
2019-04-29T12:24:30.061Z,99635.00
2019-04-29T12:27:00.802Z,99634.00
2019-04-29T12:29:31.377Z,99633.00
2019-04-29T12:32:16.625Z,99637.00
2019-04-29T12:35:04.924Z,99642.00
2019-04-29T12:37:54.450Z,99647.00
2019-04-29T12:40:45.609Z,99647.00
2019-04-29T12:43:33.831Z,99641.00
2019-04-29T12:46:15.029Z,99630.00
2019-04-29T12:48:45.558Z,99639.00
2019-04-29T12:51:17.075Z,99631.00
2019-04-29T12:53:47.820Z,99636.00
2019-04-29T12:56:22.497Z,99632.00
2019-04-29T12:58:55.128Z,99625.00
2019-04-29T13:01:51.023Z,99618.00
2019-04-29T13:04:29.645Z,99618.00
2019-04-29T13:07:34.592Z,99622.00
2019-04-29T13:10:31.197Z,99611.00
2019-04-29T13:13:01.926Z,99617.00
2019-04-29T13:15:54.668Z,99626.00
2019-04-29T13:18:35.590Z,99627.00
2019-04-29T13:21:10.567Z,99628.00
2019-04-29T13:23:55.070Z,99618.00
2019-04-29T13:26:12.679Z,99624.00
2019-04-29T13:28:58.912Z,99621.00
2019-04-29T13:31:15.615Z,99608.00
2019-04-29T13:33:51.024Z,99606.00
2019-04-29T13:36:25.343Z,99593.00
2019-04-29T13:38:51.937Z,99599.00
2019-04-29T13:41:24.294Z,99604.00
2019-04-29T13:44:04.398Z,99600.00
2019-04-29T13:46:54.428Z,99602.00
2019-04-29T13:49:53.121Z,99600.00
2019-04-29T13:52:23.876Z,99595.00
2019-04-29T13:54:54.422Z,99592.00
2019-04-29T13:57:25.210Z,99589.00
2019-04-29T14:00:13.237Z,99595.00
2019-04-29T14:02:58.742Z,99588.00
2019-04-29T14:05:25.246Z,99585.00
2019-04-29T14:07:56.982Z,99591.00
2019-04-29T14:10:28.256Z,99594.00
2019-04-29T14:13:09.769Z,99587.00
2019-04-29T14:15:34.023Z,99591.00
2019-04-29T14:18:09.866Z,99584.00
2019-04-29T14:20:37.335Z,99586.00
2019-04-29T14:23:07.932Z,99592.00
2019-04-29T14:25:38.511Z,99585.00
2019-04-29T14:28:09.114Z,99590.00
2019-04-29T14:30:43.757Z,99585.00
2019-04-29T14:33:11.942Z,99590.00
2019-04-29T14:36:07.676Z,99585.00
2019-04-29T14:38:40.803Z,99590.00
2019-04-29T14:41:14.204Z,99594.00
2019-04-29T14:44:10.757Z,99584.00
2019-04-29T14:47:25.329Z,99595.00
2019-04-29T14:49:58.486Z,99595.00
2019-04-29T14:52:29.124Z,99585.00
2019-04-29T14:55:01.576Z,99587.00
2019-04-29T14:57:32.163Z,99584.00
2019-04-29T15:00:03.218Z,99584.00
2019-04-29T15:02:34.063Z,99593.00
2019-04-29T15:05:07.293Z,99592.00
2019-04-29T15:07:37.290Z,99594.00
2019-04-29T15:10:09.499Z,99589.00
2019-04-29T15:13:11.498Z,99590.00
2019-04-29T15:16:03.872Z,99586.00
2019-04-29T15:18:50.646Z,99591.00
2019-04-29T15:21:45.484Z,99592.00
2019-04-29T15:24:17.558Z,99586.00
2019-04-29T15:26:48.294Z,99595.00
2019-04-29T15:29:18.982Z,99591.00
2019-04-29T15:31:49.512Z,99591.00
2019-04-29T15:34:21.594Z,99599.00
2019-04-29T15:36:52.250Z,99596.00
2019-04-29T15:39:25.179Z,99594.00
2019-04-29T15:41:55.489Z,99596.00
2019-04-29T15:44:26.360Z,99598.00
2019-04-29T15:46:57.140Z,99598.00
2019-04-29T15:49:27.761Z,99612.00
2019-04-29T15:51:58.555Z,99607.00
2019-04-29T15:54:30.237Z,99609.00
2019-04-29T15:57:03.621Z,99611.00
2019-04-29T15:59:47.863Z,99607.00
2019-04-29T16:02:07.351Z,99620.00
2019-04-29T16:04:42.653Z,99607.00
2019-04-29T16:07:22.354Z,99616.00
2019-04-29T16:10:20.649Z,99615.00
2019-04-29T16:12:54.923Z,99626.00
2019-04-29T16:15:25.560Z,99624.00
2019-04-29T16:17:56.112Z,99623.00
2019-04-29T16:20:26.880Z,99629.00
2019-04-29T16:23:00.698Z,99625.00
2019-04-29T16:25:29.750Z,99625.00
2019-04-29T16:28:00.366Z,99635.00
2019-04-29T16:30:31.790Z,99635.00
2019-04-29T16:33:13.380Z,99634.00
2019-04-29T16:35:35.201Z,99632.00
2019-04-29T16:38:11.173Z,99631.00
2019-04-29T16:40:42.087Z,99631.00
2019-04-29T16:43:34.774Z,99636.00
2019-04-29T16:46:24.223Z,99638.00
2019-04-29T16:48:53.148Z,99643.00
2019-04-29T16:51:23.749Z,99643.00
2019-04-29T16:53:54.528Z,99630.00
2019-04-29T16:56:25.070Z,99639.00
2019-04-29T16:58:55.699Z,99639.00
2019-04-29T17:01:26.338Z,99639.00
2019-04-29T17:04:04.644Z,99642.00
2019-04-29T17:06:29.198Z,99637.00
2019-04-29T17:09:23.039Z,99644.00
2019-04-29T17:11:56.205Z,99643.00
2019-04-29T17:14:24.434Z,99642.00
2019-04-29T17:16:55.120Z,99648.00
2019-04-29T17:19:25.847Z,99648.00
2019-04-29T17:22:23.724Z,99653.00
2019-04-29T17:24:29.005Z,99645.00
2019-04-29T17:27:19.754Z,99650.00
2019-04-29T17:30:09.399Z,99646.00
2019-04-29T17:32:48.484Z,99651.00
2019-04-29T17:35:21.612Z,99657.00
2019-04-29T17:37:53.062Z,99650.00
2019-04-29T17:40:25.296Z,99650.00
2019-04-29T17:43:08.323Z,99655.00
2019-04-29T17:45:46.505Z,99647.00
2019-04-29T17:48:30.638Z,99647.00
2019-04-29T17:51:06.113Z,99655.00
2019-04-29T17:53:41.157Z,99654.00
2019-04-29T17:56:20.005Z,99657.00
2019-04-29T17:58:57.797Z,99647.00
2019-04-29T18:01:46.868Z,99647.00
2019-04-29T18:04:36.549Z,99648.00
2019-04-29T18:07:35.211Z,99649.00
2019-04-29T18:10:34.854Z,99651.00
2019-04-29T18:13:06.661Z,99651.00
2019-04-29T18:15:57.637Z,99654.00
2019-04-29T18:18:19.331Z,99651.00
2019-04-29T18:21:07.768Z,99650.00
2019-04-29T18:23:56.771Z,99647.00
2019-04-29T18:26:27.169Z,99651.00
2019-04-29T18:29:03.425Z,99649.00
2019-04-29T18:31:31.898Z,99653.00
2019-04-29T18:34:02.592Z,99661.00
2019-04-29T18:36:35.043Z,99661.00
2019-04-29T18:39:07.620Z,99657.00
2019-04-29T18:41:38.404Z,99664.00
2019-04-29T18:44:18.691Z,99664.00
2019-04-29T18:46:45.965Z,99657.00
2019-04-29T18:49:15.945Z,99670.00
2019-04-29T18:51:46.847Z,99673.00
2019-04-29T18:54:17.851Z,99659.00
2019-04-29T18:56:48.624Z,99673.00
2019-04-29T18:59:21.451Z,99674.00
2019-04-29T19:01:51.873Z,99670.00
2019-04-29T19:04:40.681Z,99665.00
2019-04-29T19:07:11.566Z,99670.00
2019-04-29T19:09:43.410Z,99669.00
2019-04-29T19:12:15.813Z,99661.00
2019-04-29T19:14:47.861Z,99664.00
2019-04-29T19:17:21.491Z,99675.00
2019-04-29T19:19:51.108Z,99671.00
2019-04-29T19:22:23.228Z,99665.00
2019-04-29T19:24:55.497Z,99669.00
2019-04-29T19:27:30.592Z,99665.00
2019-04-29T19:29:59.716Z,99669.00
2019-04-29T19:32:30.277Z,99679.00
2019-04-29T19:35:00.929Z,99681.00
2019-04-29T19:37:37.529Z,99681.00
2019-04-29T19:40:08.220Z,99680.00
2019-04-29T19:42:39.768Z,99685.00
2019-04-29T19:45:13.066Z,99683.00
2019-04-29T19:47:47.500Z,99687.00
2019-04-29T19:50:19.549Z,99680.00
2019-04-29T19:52:49.332Z,99677.00
2019-04-29T19:55:19.990Z,99677.00
2019-04-29T19:57:53.244Z,99686.00
2019-04-29T20:00:29.483Z,99671.00
2019-04-29T20:03:00.856Z,99673.00
2019-04-29T20:05:40.101Z,99674.00
2019-04-29T20:08:13.997Z,99668.00
2019-04-29T20:10:46.407Z,99672.00
2019-04-29T20:13:14.705Z,99673.00
2019-04-29T20:15:53.396Z,99677.00
2019-04-29T20:18:58.384Z,99675.00
2019-04-29T20:21:26.812Z,99675.00
2019-04-29T20:23:53.178Z,99682.00
2019-04-29T20:26:29.711Z,99676.00
2019-04-29T20:28:57.024Z,99681.00
2019-04-29T20:31:27.975Z,99679.00
2019-04-29T20:34:01.687Z,99686.00
2019-04-29T20:36:40.874Z,99683.00
2019-04-29T20:39:06.909Z,99678.00
2019-04-29T20:41:42.180Z,99682.00
2019-04-29T20:44:12.160Z,99686.00
2019-04-29T20:46:51.670Z,99681.00
2019-04-29T20:49:16.099Z,99676.00
2019-04-29T20:51:52.130Z,99683.00
2019-04-29T20:54:25.390Z,99679.00
2019-04-29T20:57:02.891Z,99676.00
2019-04-29T20:59:28.767Z,99684.00
2019-04-29T21:02:12.170Z,99684.00
2019-04-29T21:04:45.875Z,99688.00
2019-04-29T21:07:07.217Z,99687.00
2019-04-29T21:09:37.804Z,99686.00
2019-04-29T21:12:38.133Z,99686.00
2019-04-29T21:15:14.796Z,99688.00
2019-04-29T21:17:45.765Z,99691.00
2019-04-29T21:20:17.799Z,99693.00
2019-04-29T21:22:48.350Z,99694.00
2019-04-29T21:25:18.956Z,99690.00
2019-04-29T21:27:52.611Z,99703.00
2019-04-29T21:30:27.223Z,99703.00
2019-04-29T21:32:55.886Z,99705.00
2019-04-29T21:35:49.523Z,99709.00
2019-04-29T21:38:30.601Z,99715.00
2019-04-29T21:41:05.837Z,99719.00
2019-04-29T21:43:38.591Z,99711.00
2019-04-29T21:46:09.169Z,99713.00
2019-04-29T21:48:39.724Z,99715.00
2019-04-29T21:51:11.062Z,99713.00
2019-04-29T21:53:42.848Z,99718.00
2019-04-29T21:56:13.493Z,99718.00
2019-04-29T21:58:44.061Z,99719.00
2019-04-29T22:01:16.782Z,99721.00
2019-04-29T22:03:47.321Z,99727.00
2019-04-29T22:06:17.922Z,99723.00
2019-04-29T22:08:49.484Z,99727.00
2019-04-29T22:11:20.336Z,99726.00
2019-04-29T22:13:50.919Z,99732.00
2019-04-29T22:16:22.716Z,99734.00
2019-04-29T22:18:53.237Z,99726.00
2019-04-29T22:21:26.036Z,99730.00
2019-04-29T22:23:57.299Z,99730.00
2019-04-29T22:26:27.973Z,99726.00
2019-04-29T22:29:03.306Z,99726.00
2019-04-29T22:31:34.001Z,99731.00
2019-04-29T22:34:03.151Z,99730.00
2019-04-29T22:36:33.707Z,99733.00
2019-04-29T22:39:06.222Z,99733.00
2019-04-29T22:41:55.829Z,99730.00
2019-04-29T22:44:27.066Z,99736.00
2019-04-29T22:46:57.761Z,99722.00
2019-04-29T22:49:29.295Z,99735.00
2019-04-29T22:52:00.318Z,99741.00
2019-04-29T22:54:30.863Z,99746.00
2019-04-29T22:57:01.626Z,99747.00
2019-04-29T22:59:32.156Z,99747.00
2019-04-29T23:02:02.800Z,99750.00
2019-04-29T23:04:35.121Z,99745.00
2019-04-29T23:07:05.911Z,99744.00
2019-04-29T23:09:36.676Z,99752.00
2019-04-29T23:12:09.756Z,99752.00
2019-04-29T23:14:40.274Z,99756.00
2019-04-29T23:17:13.234Z,99748.00
2019-04-29T23:19:46.516Z,99748.00
2019-04-29T23:22:29.937Z,99747.00
2019-04-29T23:25:15.548Z,99749.00
2019-04-29T23:27:48.474Z,99744.00
2019-04-29T23:30:25.597Z,99755.00
2019-04-29T23:32:56.188Z,99758.00
2019-04-29T23:35:26.762Z,99753.00
2019-04-29T23:38:04.440Z,99751.00
2019-04-29T23:40:29.744Z,99754.00
2019-04-29T23:43:00.434Z,99746.00
2019-04-29T23:45:31.021Z,99745.00
2019-04-29T23:48:01.981Z,99747.00
2019-04-29T23:50:32.527Z,99745.00
2019-04-29T23:53:03.171Z,99742.00
2019-04-29T23:55:35.564Z,99737.00
2019-04-29T23:58:28.250Z,99735.00
